sensor_id;sensor_type;location;lat;lon;timestamp;P1;durP1;ratioP1;P2;durP2;ratioP2
45011;SDS011;63444;48.148;11.542;2024-03-29T00:00:43;1.37;;;1.00;;
45011;SDS011;63444;48.148;11.542;2024-03-29T00:03:12;1.53;;;0.97;;
45011;SDS011;63444;48.148;11.542;2024-03-29T00:05:38;1.67;;;1.00;;
45011;SDS011;63444;48.148;11.542;2024-03-29T00:08:04;1.20;;;1.10;;
45011;SDS011;63444;48.148;11.542;2024-03-29T00:10:31;1.10;;;1.00;;
45011;SDS011;63444;48.148;11.542;2024-03-29T00:12:58;0.90;;;0.90;;
45011;SDS011;63444;48.148;11.542;2024-03-29T00:15:24;0.90;;;0.90;;
45011;SDS011;63444;48.148;11.542;2024-03-29T00:17:50;1.00;;;0.90;;
45011;SDS011;63444;48.148;11.542;2024-03-29T00:20:16;0.90;;;0.90;;
45011;SDS011;63444;48.148;11.542;2024-03-29T00:22:42;1.00;;;1.00;;
45011;SDS011;63444;48.148;11.542;2024-03-29T00:25:07;0.70;;;0.70;;
45011;SDS011;63444;48.148;11.542;2024-03-29T00:27:34;0.97;;;0.90;;
45011;SDS011;63444;48.148;11.542;2024-03-29T00:30:01;1.93;;;1.00;;
45011;SDS011;63444;48.148;11.542;2024-03-29T00:32:27;0.90;;;0.90;;
45011;SDS011;63444;48.148;11.542;2024-03-29T00:34:53;0.90;;;0.90;;
45011;SDS011;63444;48.148;11.542;2024-03-29T00:37:19;1.20;;;1.00;;
45011;SDS011;63444;48.148;11.542;2024-03-29T00:39:45;1.60;;;1.10;;
45011;SDS011;63444;48.148;11.542;2024-03-29T00:42:11;1.20;;;1.10;;
45011;SDS011;63444;48.148;11.542;2024-03-29T00:44:40;1.10;;;1.10;;
45011;SDS011;63444;48.148;11.542;2024-03-29T00:47:06;1.10;;;1.07;;
45011;SDS011;63444;48.148;11.542;2024-03-29T00:49:32;1.20;;;1.10;;
45011;SDS011;63444;48.148;11.542;2024-03-29T00:51:58;1.10;;;1.00;;
45011;SDS011;63444;48.148;11.542;2024-03-29T00:54:25;1.43;;;1.10;;
45011;SDS011;63444;48.148;11.542;2024-03-29T00:56:50;1.00;;;0.90;;
45011;SDS011;63444;48.148;11.542;2024-03-29T00:59:17;1.00;;;1.00;;
45011;SDS011;63444;48.148;11.542;2024-03-29T01:01:43;1.00;;;1.00;;
45011;SDS011;63444;48.148;11.542;2024-03-29T01:04:09;1.13;;;1.03;;
45011;SDS011;63444;48.148;11.542;2024-03-29T01:06:35;1.00;;;0.90;;
45011;SDS011;63444;48.148;11.542;2024-03-29T01:09:01;0.93;;;0.90;;
45011;SDS011;63444;48.148;11.542;2024-03-29T01:11:28;0.83;;;0.83;;
45011;SDS011;63444;48.148;11.542;2024-03-29T01:13:57;0.90;;;0.90;;
45011;SDS011;63444;48.148;11.542;2024-03-29T01:16:23;1.33;;;0.90;;
45011;SDS011;63444;48.148;11.542;2024-03-29T01:18:49;0.90;;;0.90;;
45011;SDS011;63444;48.148;11.542;2024-03-29T01:21:15;0.80;;;0.80;;
45011;SDS011;63444;48.148;11.542;2024-03-29T01:23:43;1.00;;;0.90;;
45011;SDS011;63444;48.148;11.542;2024-03-29T01:26:08;0.90;;;0.90;;
45011;SDS011;63444;48.148;11.542;2024-03-29T01:28:37;0.80;;;0.80;;
45011;SDS011;63444;48.148;11.542;2024-03-29T01:31:03;0.90;;;0.90;;
45011;SDS011;63444;48.148;11.542;2024-03-29T01:33:29;0.80;;;0.80;;
45011;SDS011;63444;48.148;11.542;2024-03-29T01:35:58;0.97;;;0.97;;
45011;SDS011;63444;48.148;11.542;2024-03-29T01:38:23;1.20;;;0.90;;
45011;SDS011;63444;48.148;11.542;2024-03-29T01:40:51;0.80;;;0.80;;
45011;SDS011;63444;48.148;11.542;2024-03-29T01:43:16;0.90;;;0.90;;
45011;SDS011;63444;48.148;11.542;2024-03-29T01:45:42;0.80;;;0.80;;
45011;SDS011;63444;48.148;11.542;2024-03-29T01:48:12;0.73;;;0.73;;
45011;SDS011;63444;48.148;11.542;2024-03-29T01:50:38;0.80;;;0.80;;
45011;SDS011;63444;48.148;11.542;2024-03-29T01:53:05;0.80;;;0.80;;
45011;SDS011;63444;48.148;11.542;2024-03-29T01:55:35;2.20;;;1.07;;
45011;SDS011;63444;48.148;11.542;2024-03-29T01:58:01;0.80;;;0.80;;
45011;SDS011;63444;48.148;11.542;2024-03-29T02:00:27;0.80;;;0.80;;
45011;SDS011;63444;48.148;11.542;2024-03-29T02:02:55;0.70;;;0.70;;
45011;SDS011;63444;48.148;11.542;2024-03-29T02:05:22;0.80;;;0.80;;
45011;SDS011;63444;48.148;11.542;2024-03-29T02:07:48;1.27;;;1.00;;
45011;SDS011;63444;48.148;11.542;2024-03-29T02:10:14;0.80;;;0.80;;
45011;SDS011;63444;48.148;11.542;2024-03-29T02:12:40;0.80;;;0.80;;
45011;SDS011;63444;48.148;11.542;2024-03-29T02:15:06;0.77;;;0.70;;
45011;SDS011;63444;48.148;11.542;2024-03-29T02:17:33;0.97;;;0.80;;
45011;SDS011;63444;48.148;11.542;2024-03-29T02:19:59;0.70;;;0.70;;
45011;SDS011;63444;48.148;11.542;2024-03-29T02:22:24;0.80;;;0.80;;
45011;SDS011;63444;48.148;11.542;2024-03-29T02:24:52;0.80;;;0.80;;
45011;SDS011;63444;48.148;11.542;2024-03-29T02:27:19;0.80;;;0.80;;
45011;SDS011;63444;48.148;11.542;2024-03-29T02:29:46;1.13;;;0.80;;
45011;SDS011;63444;48.148;11.542;2024-03-29T02:32:12;0.70;;;0.70;;
45011;SDS011;63444;48.148;11.542;2024-03-29T02:34:38;0.70;;;0.70;;
45011;SDS011;63444;48.148;11.542;2024-03-29T02:37:03;1.47;;;0.90;;
45011;SDS011;63444;48.148;11.542;2024-03-29T02:39:30;0.80;;;0.80;;
45011;SDS011;63444;48.148;11.542;2024-03-29T02:41:55;0.97;;;0.90;;
45011;SDS011;63444;48.148;11.542;2024-03-29T02:44:21;0.70;;;0.70;;
45011;SDS011;63444;48.148;11.542;2024-03-29T02:46:47;1.13;;;0.90;;
45011;SDS011;63444;48.148;11.542;2024-03-29T02:49:12;0.97;;;0.80;;
45011;SDS011;63444;48.148;11.542;2024-03-29T02:51:38;0.90;;;0.90;;
45011;SDS011;63444;48.148;11.542;2024-03-29T02:54:04;0.90;;;0.90;;
45011;SDS011;63444;48.148;11.542;2024-03-29T02:56:29;1.17;;;0.90;;
45011;SDS011;63444;48.148;11.542;2024-03-29T02:58:56;2.10;;;1.00;;
45011;SDS011;63444;48.148;11.542;2024-03-29T03:01:24;1.20;;;1.00;;
45011;SDS011;63444;48.148;11.542;2024-03-29T03:03:49;0.90;;;0.90;;
45011;SDS011;63444;48.148;11.542;2024-03-29T03:06:15;1.10;;;1.00;;
45011;SDS011;63444;48.148;11.542;2024-03-29T03:08:41;1.03;;;0.93;;
45011;SDS011;63444;48.148;11.542;2024-03-29T03:11:25;0.90;;;0.90;;
45011;SDS011;63444;48.148;11.542;2024-03-29T03:13:50;0.90;;;0.90;;
45011;SDS011;63444;48.148;11.542;2024-03-29T03:16:17;1.60;;;1.00;;
45011;SDS011;63444;48.148;11.542;2024-03-29T03:18:43;0.80;;;0.80;;
45011;SDS011;63444;48.148;11.542;2024-03-29T03:21:09;0.97;;;0.83;;
45011;SDS011;63444;48.148;11.542;2024-03-29T03:23:35;0.83;;;0.83;;
45011;SDS011;63444;48.148;11.542;2024-03-29T03:26:02;0.90;;;0.90;;
45011;SDS011;63444;48.148;11.542;2024-03-29T03:28:31;1.00;;;1.00;;
45011;SDS011;63444;48.148;11.542;2024-03-29T03:30:57;1.23;;;0.90;;
45011;SDS011;63444;48.148;11.542;2024-03-29T03:33:22;1.00;;;1.00;;
45011;SDS011;63444;48.148;11.542;2024-03-29T03:35:48;0.80;;;0.80;;
45011;SDS011;63444;48.148;11.542;2024-03-29T03:38:14;1.00;;;1.00;;
45011;SDS011;63444;48.148;11.542;2024-03-29T03:40:42;0.97;;;0.93;;
45011;SDS011;63444;48.148;11.542;2024-03-29T03:43:08;2.10;;;0.87;;
45011;SDS011;63444;48.148;11.542;2024-03-29T03:45:34;0.90;;;0.90;;
45011;SDS011;63444;48.148;11.542;2024-03-29T03:48:01;0.87;;;0.80;;
45011;SDS011;63444;48.148;11.542;2024-03-29T03:50:30;0.90;;;0.90;;
45011;SDS011;63444;48.148;11.542;2024-03-29T03:52:56;1.00;;;0.90;;
45011;SDS011;63444;48.148;11.542;2024-03-29T03:55:22;0.77;;;0.77;;
45011;SDS011;63444;48.148;11.542;2024-03-29T03:57:48;0.90;;;0.90;;
45011;SDS011;63444;48.148;11.542;2024-03-29T04:00:15;0.80;;;0.80;;
45011;SDS011;63444;48.148;11.542;2024-03-29T04:02:42;0.80;;;0.80;;
45011;SDS011;63444;48.148;11.542;2024-03-29T04:05:11;0.80;;;0.80;;
45011;SDS011;63444;48.148;11.542;2024-03-29T04:07:37;0.87;;;0.77;;
45011;SDS011;63444;48.148;11.542;2024-03-29T04:10:03;0.80;;;0.80;;
45011;SDS011;63444;48.148;11.542;2024-03-29T04:12:29;1.27;;;1.00;;
45011;SDS011;63444;48.148;11.542;2024-03-29T04:14:55;1.00;;;1.00;;
45011;SDS011;63444;48.148;11.542;2024-03-29T04:17:22;1.00;;;1.00;;
45011;SDS011;63444;48.148;11.542;2024-03-29T04:19:49;0.90;;;0.90;;
45011;SDS011;63444;48.148;11.542;2024-03-29T04:22:14;0.90;;;0.90;;
45011;SDS011;63444;48.148;11.542;2024-03-29T04:24:40;0.90;;;0.90;;
45011;SDS011;63444;48.148;11.542;2024-03-29T04:27:06;0.90;;;0.90;;
45011;SDS011;63444;48.148;11.542;2024-03-29T04:29:32;0.90;;;0.90;;
45011;SDS011;63444;48.148;11.542;2024-03-29T04:31:57;1.20;;;1.10;;
45011;SDS011;63444;48.148;11.542;2024-03-29T04:34:23;1.00;;;1.00;;
45011;SDS011;63444;48.148;11.542;2024-03-29T04:36:49;0.90;;;0.90;;
45011;SDS011;63444;48.148;11.542;2024-03-29T04:39:14;1.07;;;1.07;;
45011;SDS011;63444;48.148;11.542;2024-03-29T04:41:40;1.10;;;1.00;;
45011;SDS011;63444;48.148;11.542;2024-03-29T04:44:06;1.00;;;1.00;;
45011;SDS011;63444;48.148;11.542;2024-03-29T04:46:33;1.20;;;1.10;;
45011;SDS011;63444;48.148;11.542;2024-03-29T04:48:59;1.07;;;1.07;;
45011;SDS011;63444;48.148;11.542;2024-03-29T04:51:24;0.93;;;0.93;;
45011;SDS011;63444;48.148;11.542;2024-03-29T04:53:50;1.20;;;1.10;;
45011;SDS011;63444;48.148;11.542;2024-03-29T04:56:16;1.10;;;1.00;;
45011;SDS011;63444;48.148;11.542;2024-03-29T04:58:42;1.00;;;1.00;;
45011;SDS011;63444;48.148;11.542;2024-03-29T05:01:08;1.00;;;1.00;;
45011;SDS011;63444;48.148;11.542;2024-03-29T05:03:33;2.00;;;1.20;;
45011;SDS011;63444;48.148;11.542;2024-03-29T05:06:00;1.13;;;1.00;;
45011;SDS011;63444;48.148;11.542;2024-03-29T05:08:25;1.27;;;1.27;;
45011;SDS011;63444;48.148;11.542;2024-03-29T05:10:52;1.27;;;1.17;;
45011;SDS011;63444;48.148;11.542;2024-03-29T05:13:18;1.40;;;1.30;;
45011;SDS011;63444;48.148;11.542;2024-03-29T05:15:45;1.50;;;1.40;;
45011;SDS011;63444;48.148;11.542;2024-03-29T05:18:12;1.37;;;1.20;;
45011;SDS011;63444;48.148;11.542;2024-03-29T05:20:38;1.27;;;1.17;;
45011;SDS011;63444;48.148;11.542;2024-03-29T05:23:12;1.40;;;1.30;;
45011;SDS011;63444;48.148;11.542;2024-03-29T05:25:39;1.40;;;1.30;;
45011;SDS011;63444;48.148;11.542;2024-03-29T05:28:05;1.10;;;1.10;;
45011;SDS011;63444;48.148;11.542;2024-03-29T05:30:32;1.10;;;1.10;;
45011;SDS011;63444;48.148;11.542;2024-03-29T05:32:59;1.33;;;1.23;;
45011;SDS011;63444;48.148;11.542;2024-03-29T05:35:25;1.23;;;1.20;;
45011;SDS011;63444;48.148;11.542;2024-03-29T05:37:50;1.40;;;1.30;;
45011;SDS011;63444;48.148;11.542;2024-03-29T05:40:18;1.13;;;1.13;;
45011;SDS011;63444;48.148;11.542;2024-03-29T05:42:44;1.40;;;1.20;;
45011;SDS011;63444;48.148;11.542;2024-03-29T05:45:22;1.90;;;1.37;;
45011;SDS011;63444;48.148;11.542;2024-03-29T05:47:50;1.40;;;1.30;;
45011;SDS011;63444;48.148;11.542;2024-03-29T05:50:17;1.53;;;1.43;;
45011;SDS011;63444;48.148;11.542;2024-03-29T05:52:43;1.40;;;1.30;;
45011;SDS011;63444;48.148;11.542;2024-03-29T05:55:08;1.43;;;1.30;;
45011;SDS011;63444;48.148;11.542;2024-03-29T05:57:34;1.60;;;1.27;;
45011;SDS011;63444;48.148;11.542;2024-03-29T06:00:04;1.40;;;1.30;;
45011;SDS011;63444;48.148;11.542;2024-03-29T06:02:30;1.73;;;1.40;;
45011;SDS011;63444;48.148;11.542;2024-03-29T06:04:56;1.20;;;1.20;;
45011;SDS011;63444;48.148;11.542;2024-03-29T06:07:22;1.77;;;1.27;;
45011;SDS011;63444;48.148;11.542;2024-03-29T06:09:47;1.87;;;1.50;;
45011;SDS011;63444;48.148;11.542;2024-03-29T06:12:16;1.33;;;1.30;;
45011;SDS011;63444;48.148;11.542;2024-03-29T06:14:41;1.30;;;1.20;;
45011;SDS011;63444;48.148;11.542;2024-03-29T06:17:25;1.40;;;1.30;;
45011;SDS011;63444;48.148;11.542;2024-03-29T06:19:51;1.30;;;1.20;;
45011;SDS011;63444;48.148;11.542;2024-03-29T06:22:21;1.30;;;1.30;;
45011;SDS011;63444;48.148;11.542;2024-03-29T06:24:51;1.20;;;1.20;;
45011;SDS011;63444;48.148;11.542;2024-03-29T06:27:17;1.33;;;1.23;;
45011;SDS011;63444;48.148;11.542;2024-03-29T06:29:45;1.37;;;1.27;;
45011;SDS011;63444;48.148;11.542;2024-03-29T06:32:11;1.50;;;1.40;;
45011;SDS011;63444;48.148;11.542;2024-03-29T06:34:37;2.20;;;1.40;;
45011;SDS011;63444;48.148;11.542;2024-03-29T06:37:03;1.40;;;1.30;;
45011;SDS011;63444;48.148;11.542;2024-03-29T06:39:30;1.30;;;1.20;;
45011;SDS011;63444;48.148;11.542;2024-03-29T06:41:55;1.37;;;1.27;;
45011;SDS011;63444;48.148;11.542;2024-03-29T06:44:22;1.30;;;1.20;;
45011;SDS011;63444;48.148;11.542;2024-03-29T06:46:48;1.50;;;1.40;;
45011;SDS011;63444;48.148;11.542;2024-03-29T06:49:14;2.90;;;1.30;;
45011;SDS011;63444;48.148;11.542;2024-03-29T06:51:40;1.30;;;1.20;;
45011;SDS011;63444;48.148;11.542;2024-03-29T06:54:08;1.40;;;1.30;;
45011;SDS011;63444;48.148;11.542;2024-03-29T06:56:33;1.17;;;1.17;;
45011;SDS011;63444;48.148;11.542;2024-03-29T06:58:59;1.17;;;1.10;;
45011;SDS011;63444;48.148;11.542;2024-03-29T07:01:25;1.77;;;1.30;;
45011;SDS011;63444;48.148;11.542;2024-03-29T07:03:50;1.40;;;1.17;;
45011;SDS011;63444;48.148;11.542;2024-03-29T07:06:16;1.30;;;1.20;;
45011;SDS011;63444;48.148;11.542;2024-03-29T07:08:42;2.23;;;1.27;;
45011;SDS011;63444;48.148;11.542;2024-03-29T07:11:07;1.47;;;1.10;;
45011;SDS011;63444;48.148;11.542;2024-03-29T07:13:33;1.30;;;1.10;;
45011;SDS011;63444;48.148;11.542;2024-03-29T07:15:59;1.30;;;1.20;;
45011;SDS011;63444;48.148;11.542;2024-03-29T07:18:25;1.53;;;1.30;;
45011;SDS011;63444;48.148;11.542;2024-03-29T07:20:51;1.10;;;1.10;;
45011;SDS011;63444;48.148;11.542;2024-03-29T07:23:18;1.17;;;1.10;;
45011;SDS011;63444;48.148;11.542;2024-03-29T07:25:44;1.20;;;1.10;;
45011;SDS011;63444;48.148;11.542;2024-03-29T07:28:10;1.80;;;1.23;;
45011;SDS011;63444;48.148;11.542;2024-03-29T07:30:39;2.23;;;1.30;;
45011;SDS011;63444;48.148;11.542;2024-03-29T07:33:09;1.27;;;1.03;;
45011;SDS011;63444;48.148;11.542;2024-03-29T07:35:35;1.27;;;1.17;;
45011;SDS011;63444;48.148;11.542;2024-03-29T07:38:03;1.03;;;1.00;;
45011;SDS011;63444;48.148;11.542;2024-03-29T07:40:28;1.40;;;1.17;;
45011;SDS011;63444;48.148;11.542;2024-03-29T07:42:54;1.00;;;1.00;;
45011;SDS011;63444;48.148;11.542;2024-03-29T07:45:20;1.63;;;1.00;;
45011;SDS011;63444;48.148;11.542;2024-03-29T07:47:46;2.33;;;0.93;;
45011;SDS011;63444;48.148;11.542;2024-03-29T07:50:17;0.90;;;0.90;;
45011;SDS011;63444;48.148;11.542;2024-03-29T07:52:46;0.90;;;0.90;;
45011;SDS011;63444;48.148;11.542;2024-03-29T07:55:12;0.87;;;0.80;;
45011;SDS011;63444;48.148;11.542;2024-03-29T07:57:38;0.97;;;0.83;;
45011;SDS011;63444;48.148;11.542;2024-03-29T08:00:04;0.80;;;0.80;;
45011;SDS011;63444;48.148;11.542;2024-03-29T08:02:33;0.80;;;0.80;;
45011;SDS011;63444;48.148;11.542;2024-03-29T08:04:59;0.93;;;0.93;;
45011;SDS011;63444;48.148;11.542;2024-03-29T08:07:25;2.20;;;1.10;;
45011;SDS011;63444;48.148;11.542;2024-03-29T08:09:52;0.80;;;0.80;;
45011;SDS011;63444;48.148;11.542;2024-03-29T08:12:17;0.90;;;0.90;;
45011;SDS011;63444;48.148;11.542;2024-03-29T08:14:43;1.33;;;1.00;;
45011;SDS011;63444;48.148;11.542;2024-03-29T08:17:10;0.70;;;0.70;;
45011;SDS011;63444;48.148;11.542;2024-03-29T08:19:39;0.70;;;0.70;;
45011;SDS011;63444;48.148;11.542;2024-03-29T08:22:05;0.93;;;0.83;;
45011;SDS011;63444;48.148;11.542;2024-03-29T08:24:32;0.87;;;0.87;;
45011;SDS011;63444;48.148;11.542;2024-03-29T08:26:58;0.80;;;0.80;;
45011;SDS011;63444;48.148;11.542;2024-03-29T08:29:24;1.20;;;1.00;;
45011;SDS011;63444;48.148;11.542;2024-03-29T08:31:53;1.13;;;0.83;;
45011;SDS011;63444;48.148;11.542;2024-03-29T08:34:18;0.90;;;0.80;;
45011;SDS011;63444;48.148;11.542;2024-03-29T08:36:44;2.50;;;1.00;;
45011;SDS011;63444;48.148;11.542;2024-03-29T08:39:10;1.17;;;1.07;;
45011;SDS011;63444;48.148;11.542;2024-03-29T08:41:36;1.00;;;0.90;;
45011;SDS011;63444;48.148;11.542;2024-03-29T08:44:02;2.00;;;0.97;;
45011;SDS011;63444;48.148;11.542;2024-03-29T08:46:28;1.10;;;1.00;;
45011;SDS011;63444;48.148;11.542;2024-03-29T08:48:53;1.27;;;0.80;;
45011;SDS011;63444;48.148;11.542;2024-03-29T08:51:22;1.37;;;1.00;;
45011;SDS011;63444;48.148;11.542;2024-03-29T08:53:50;1.23;;;1.03;;
45011;SDS011;63444;48.148;11.542;2024-03-29T08:56:19;1.27;;;1.03;;
45011;SDS011;63444;48.148;11.542;2024-03-29T08:58:44;1.17;;;0.90;;
45011;SDS011;63444;48.148;11.542;2024-03-29T09:01:12;1.17;;;1.07;;
45011;SDS011;63444;48.148;11.542;2024-03-29T09:03:39;0.90;;;0.90;;
45011;SDS011;63444;48.148;11.542;2024-03-29T09:06:05;1.13;;;1.00;;
45011;SDS011;63444;48.148;11.542;2024-03-29T09:08:31;1.30;;;0.80;;
45011;SDS011;63444;48.148;11.542;2024-03-29T09:10:56;1.40;;;0.70;;
45011;SDS011;63444;48.148;11.542;2024-03-29T09:13:23;0.60;;;0.60;;
45011;SDS011;63444;48.148;11.542;2024-03-29T09:15:49;1.03;;;0.70;;
45011;SDS011;63444;48.148;11.542;2024-03-29T09:18:15;1.00;;;0.87;;
45011;SDS011;63444;48.148;11.542;2024-03-29T09:21:01;0.90;;;0.57;;
45011;SDS011;63444;48.148;11.542;2024-03-29T09:23:27;0.70;;;0.70;;
45011;SDS011;63444;48.148;11.542;2024-03-29T09:25:55;0.70;;;0.70;;
45011;SDS011;63444;48.148;11.542;2024-03-29T09:28:24;0.83;;;0.73;;
45011;SDS011;63444;48.148;11.542;2024-03-29T09:30:50;0.97;;;0.83;;
45011;SDS011;63444;48.148;11.542;2024-03-29T09:33:22;1.83;;;0.70;;
45011;SDS011;63444;48.148;11.542;2024-03-29T09:35:47;1.20;;;0.87;;
45011;SDS011;63444;48.148;11.542;2024-03-29T09:38:13;0.70;;;0.70;;
45011;SDS011;63444;48.148;11.542;2024-03-29T09:40:40;1.20;;;1.00;;
45011;SDS011;63444;48.148;11.542;2024-03-29T09:43:06;1.23;;;0.90;;
45011;SDS011;63444;48.148;11.542;2024-03-29T09:45:34;1.30;;;0.73;;
45011;SDS011;63444;48.148;11.542;2024-03-29T09:48:02;0.70;;;0.60;;
45011;SDS011;63444;48.148;11.542;2024-03-29T09:50:33;0.63;;;0.63;;
45011;SDS011;63444;48.148;11.542;2024-03-29T09:53:05;0.70;;;0.70;;
45011;SDS011;63444;48.148;11.542;2024-03-29T09:55:33;0.73;;;0.60;;
45011;SDS011;63444;48.148;11.542;2024-03-29T09:58:00;0.97;;;0.80;;
45011;SDS011;63444;48.148;11.542;2024-03-29T10:00:28;1.10;;;0.73;;
45011;SDS011;63444;48.148;11.542;2024-03-29T10:02:55;1.60;;;0.80;;
45011;SDS011;63444;48.148;11.542;2024-03-29T10:05:25;1.07;;;0.70;;
45011;SDS011;63444;48.148;11.542;2024-03-29T10:07:52;1.17;;;0.97;;
45011;SDS011;63444;48.148;11.542;2024-03-29T10:10:19;3.07;;;0.87;;
45011;SDS011;63444;48.148;11.542;2024-03-29T10:12:45;1.23;;;0.80;;
45011;SDS011;63444;48.148;11.542;2024-03-29T10:15:10;0.70;;;0.70;;
45011;SDS011;63444;48.148;11.542;2024-03-29T10:17:46;1.17;;;0.80;;
45011;SDS011;63444;48.148;11.542;2024-03-29T10:20:15;3.90;;;1.10;;
45011;SDS011;63444;48.148;11.542;2024-03-29T10:22:43;1.00;;;0.70;;
45011;SDS011;63444;48.148;11.542;2024-03-29T10:25:11;0.67;;;0.67;;
45011;SDS011;63444;48.148;11.542;2024-03-29T10:27:40;1.33;;;0.70;;
45011;SDS011;63444;48.148;11.542;2024-03-29T10:30:06;0.77;;;0.77;;
45011;SDS011;63444;48.148;11.542;2024-03-29T10:32:34;0.70;;;0.70;;
45011;SDS011;63444;48.148;11.542;2024-03-29T10:35:02;0.63;;;0.63;;
45011;SDS011;63444;48.148;11.542;2024-03-29T10:37:28;1.00;;;0.70;;
45011;SDS011;63444;48.148;11.542;2024-03-29T10:39:57;1.40;;;0.77;;
45011;SDS011;63444;48.148;11.542;2024-03-29T10:42:24;0.80;;;0.80;;
45011;SDS011;63444;48.148;11.542;2024-03-29T10:44:50;0.60;;;0.60;;
45011;SDS011;63444;48.148;11.542;2024-03-29T10:47:18;1.33;;;0.80;;
45011;SDS011;63444;48.148;11.542;2024-03-29T10:49:49;0.50;;;0.50;;
45011;SDS011;63444;48.148;11.542;2024-03-29T10:52:20;1.17;;;0.90;;
45011;SDS011;63444;48.148;11.542;2024-03-29T10:54:47;0.73;;;0.73;;
45011;SDS011;63444;48.148;11.542;2024-03-29T10:57:16;0.80;;;0.80;;
45011;SDS011;63444;48.148;11.542;2024-03-29T10:59:49;0.60;;;0.57;;
45011;SDS011;63444;48.148;11.542;2024-03-29T11:02:48;2.50;;;0.70;;
45011;SDS011;63444;48.148;11.542;2024-03-29T11:05:16;1.13;;;0.70;;
45011;SDS011;63444;48.148;11.542;2024-03-29T11:07:42;1.40;;;0.67;;
45011;SDS011;63444;48.148;11.542;2024-03-29T11:10:27;1.17;;;0.70;;
45011;SDS011;63444;48.148;11.542;2024-03-29T11:16:23;0.90;;;0.70;;
45011;SDS011;63444;48.148;11.542;2024-03-29T11:18:50;0.53;;;0.53;;
45011;SDS011;63444;48.148;11.542;2024-03-29T11:21:17;1.23;;;0.80;;
45011;SDS011;63444;48.148;11.542;2024-03-29T11:23:50;0.73;;;0.70;;
45011;SDS011;63444;48.148;11.542;2024-03-29T11:26:18;0.70;;;0.70;;
45011;SDS011;63444;48.148;11.542;2024-03-29T11:28:50;0.90;;;0.60;;
45011;SDS011;63444;48.148;11.542;2024-03-29T11:31:22;0.67;;;0.67;;
45011;SDS011;63444;48.148;11.542;2024-03-29T11:33:49;0.60;;;0.60;;
45011;SDS011;63444;48.148;11.542;2024-03-29T11:39:09;0.87;;;0.60;;
45011;SDS011;63444;48.148;11.542;2024-03-29T11:41:46;0.60;;;0.60;;
45011;SDS011;63444;48.148;11.542;2024-03-29T11:44:16;1.50;;;0.70;;
45011;SDS011;63444;48.148;11.542;2024-03-29T11:46:46;0.98;;;0.80;;
45011;SDS011;63444;48.148;11.542;2024-03-29T11:49:12;1.27;;;0.80;;
45011;SDS011;63444;48.148;11.542;2024-03-29T11:51:40;0.83;;;0.60;;
45011;SDS011;63444;48.148;11.542;2024-03-29T11:54:06;1.13;;;0.80;;
45011;SDS011;63444;48.148;11.542;2024-03-29T11:56:32;0.70;;;0.70;;
45011;SDS011;63444;48.148;11.542;2024-03-29T11:58:58;0.80;;;0.70;;
45011;SDS011;63444;48.148;11.542;2024-03-29T12:01:25;0.52;;;0.52;;
45011;SDS011;63444;48.148;11.542;2024-03-29T12:03:52;0.75;;;0.60;;
45011;SDS011;63444;48.148;11.542;2024-03-29T12:06:19;0.88;;;0.50;;
45011;SDS011;63444;48.148;11.542;2024-03-29T12:08:46;0.70;;;0.70;;
45011;SDS011;63444;48.148;11.542;2024-03-29T12:11:14;0.77;;;0.65;;
45011;SDS011;63444;48.148;11.542;2024-03-29T12:13:40;0.80;;;0.70;;
45011;SDS011;63444;48.148;11.542;2024-03-29T12:16:06;0.43;;;0.43;;
45011;SDS011;63444;48.148;11.542;2024-03-29T12:18:33;0.95;;;0.70;;
45011;SDS011;63444;48.148;11.542;2024-03-29T12:21:00;0.60;;;0.60;;
45011;SDS011;63444;48.148;11.542;2024-03-29T12:23:26;0.80;;;0.50;;
45011;SDS011;63444;48.148;11.542;2024-03-29T12:25:53;0.60;;;0.60;;
45011;SDS011;63444;48.148;11.542;2024-03-29T12:28:23;0.70;;;0.55;;
45011;SDS011;63444;48.148;11.542;2024-03-29T12:30:50;0.40;;;0.40;;
45011;SDS011;63444;48.148;11.542;2024-03-29T12:33:18;0.40;;;0.40;;
45011;SDS011;63444;48.148;11.542;2024-03-29T12:35:49;1.20;;;0.70;;
45011;SDS011;63444;48.148;11.542;2024-03-29T12:38:20;0.77;;;0.70;;
45011;SDS011;63444;48.148;11.542;2024-03-29T12:40:47;0.60;;;0.60;;
45011;SDS011;63444;48.148;11.542;2024-03-29T12:43:15;0.95;;;0.63;;
45011;SDS011;63444;48.148;11.542;2024-03-29T12:45:45;0.45;;;0.45;;
45011;SDS011;63444;48.148;11.542;2024-03-29T12:48:12;0.60;;;0.60;;
45011;SDS011;63444;48.148;11.542;2024-03-29T12:50:43;0.70;;;0.70;;
45011;SDS011;63444;48.148;11.542;2024-03-29T12:53:11;0.50;;;0.50;;
45011;SDS011;63444;48.148;11.542;2024-03-29T12:55:42;0.50;;;0.50;;
45011;SDS011;63444;48.148;11.542;2024-03-29T12:58:15;0.40;;;0.40;;
45011;SDS011;63444;48.148;11.542;2024-03-29T13:00:43;1.40;;;0.50;;
45011;SDS011;63444;48.148;11.542;2024-03-29T13:03:09;0.47;;;0.47;;
45011;SDS011;63444;48.148;11.542;2024-03-29T13:05:36;0.50;;;0.50;;
45011;SDS011;63444;48.148;11.542;2024-03-29T13:08:11;0.63;;;0.63;;
45011;SDS011;63444;48.148;11.542;2024-03-29T13:10:40;0.50;;;0.50;;
45011;SDS011;63444;48.148;11.542;2024-03-29T13:13:07;0.88;;;0.60;;
45011;SDS011;63444;48.148;11.542;2024-03-29T13:15:34;0.68;;;0.68;;
45011;SDS011;63444;48.148;11.542;2024-03-29T13:18:01;1.05;;;0.68;;
45011;SDS011;63444;48.148;11.542;2024-03-29T13:20:29;0.45;;;0.40;;
45011;SDS011;63444;48.148;11.542;2024-03-29T13:22:55;0.28;;;0.28;;
45011;SDS011;63444;48.148;11.542;2024-03-29T13:25:24;0.68;;;0.40;;
45011;SDS011;63444;48.148;11.542;2024-03-29T13:27:50;0.52;;;0.50;;
45011;SDS011;63444;48.148;11.542;2024-03-29T13:30:22;0.30;;;0.30;;
45011;SDS011;63444;48.148;11.542;2024-03-29T13:32:55;0.32;;;0.32;;
45011;SDS011;63444;48.148;11.542;2024-03-29T13:35:21;0.52;;;0.52;;
45011;SDS011;63444;48.148;11.542;2024-03-29T13:37:47;0.52;;;0.52;;
45011;SDS011;63444;48.148;11.542;2024-03-29T13:40:20;0.43;;;0.40;;
45011;SDS011;63444;48.148;11.542;2024-03-29T13:42:49;0.95;;;0.50;;
45011;SDS011;63444;48.148;11.542;2024-03-29T13:45:15;0.30;;;0.30;;
45011;SDS011;63444;48.148;11.542;2024-03-29T13:47:41;0.30;;;0.30;;
45011;SDS011;63444;48.148;11.542;2024-03-29T13:50:09;0.45;;;0.45;;
45011;SDS011;63444;48.148;11.542;2024-03-29T13:52:35;0.45;;;0.45;;
45011;SDS011;63444;48.148;11.542;2024-03-29T13:55:02;0.38;;;0.38;;
45011;SDS011;63444;48.148;11.542;2024-03-29T13:57:28;0.40;;;0.40;;
45011;SDS011;63444;48.148;11.542;2024-03-29T13:59:55;0.40;;;0.40;;
45011;SDS011;63444;48.148;11.542;2024-03-29T14:02:21;0.45;;;0.45;;
45011;SDS011;63444;48.148;11.542;2024-03-29T14:04:49;0.38;;;0.38;;
45011;SDS011;63444;48.148;11.542;2024-03-29T14:07:15;0.32;;;0.32;;
45011;SDS011;63444;48.148;11.542;2024-03-29T14:09:43;0.30;;;0.30;;
45011;SDS011;63444;48.148;11.542;2024-03-29T14:12:09;0.28;;;0.28;;
45011;SDS011;63444;48.148;11.542;2024-03-29T14:14:35;0.40;;;0.32;;
45011;SDS011;63444;48.148;11.542;2024-03-29T14:17:02;0.38;;;0.38;;
45011;SDS011;63444;48.148;11.542;2024-03-29T14:19:33;0.50;;;0.50;;
45011;SDS011;63444;48.148;11.542;2024-03-29T14:22:00;0.35;;;0.35;;
45011;SDS011;63444;48.148;11.542;2024-03-29T14:24:26;0.47;;;0.30;;
45011;SDS011;63444;48.148;11.542;2024-03-29T14:26:53;0.40;;;0.40;;
45011;SDS011;63444;48.148;11.542;2024-03-29T14:29:19;0.20;;;0.20;;
45011;SDS011;63444;48.148;11.542;2024-03-29T14:31:48;0.50;;;0.50;;
45011;SDS011;63444;48.148;11.542;2024-03-29T14:34:14;1.65;;;0.50;;
45011;SDS011;63444;48.148;11.542;2024-03-29T14:36:40;0.65;;;0.30;;
45011;SDS011;63444;48.148;11.542;2024-03-29T14:39:06;0.40;;;0.40;;